sensor_id;sensor_type;location;lat;lon;timestamp;pressure;altitude;pressure_sealevel;temperature
69007;BMP180;56061;51.748;19.620;2023-08-21T00:01:38;99419.20;;;20.90
69007;BMP180;56061;51.748;19.620;2023-08-21T00:04:05;99416.80;;;20.80
69007;BMP180;56061;51.748;19.620;2023-08-21T00:06:32;99419.00;;;20.80
69007;BMP180;56061;51.748;19.620;2023-08-21T00:09:00;99421.00;;;20.80
69007;BMP180;56061;51.748;19.620;2023-08-21T00:11:27;99419.20;;;20.80
69007;BMP180;56061;51.748;19.620;2023-08-21T00:13:54;99418.00;;;20.80
69007;BMP180;56061;51.748;19.620;2023-08-21T00:16:20;99418.80;;;20.80
69007;BMP180;56061;51.748;19.620;2023-08-21T00:18:47;99419.40;;;20.80
69007;BMP180;56061;51.748;19.620;2023-08-21T00:21:13;99407.60;;;20.86
69007;BMP180;56061;51.748;19.620;2023-08-21T00:23:40;99406.00;;;20.90
69007;BMP180;56061;51.748;19.620;2023-08-21T00:26:06;99407.60;;;20.90
69007;BMP180;56061;51.748;19.620;2023-08-21T00:28:32;99413.40;;;20.86
69007;BMP180;56061;51.748;19.620;2023-08-21T00:31:05;99404.80;;;20.80
69007;BMP180;56061;51.748;19.620;2023-08-21T00:33:33;99401.60;;;20.80
69007;BMP180;56061;51.748;19.620;2023-08-21T00:35:59;99402.40;;;20.80
69007;BMP180;56061;51.748;19.620;2023-08-21T00:38:26;99405.60;;;20.80
69007;BMP180;56061;51.748;19.620;2023-08-21T00:40:53;99408.60;;;20.70
69007;BMP180;56061;51.748;19.620;2023-08-21T00:43:20;99411.80;;;20.70
69007;BMP180;56061;51.748;19.620;2023-08-21T00:45:48;99405.60;;;20.74
69007;BMP180;56061;51.748;19.620;2023-08-21T00:48:17;99410.80;;;20.80
69007;BMP180;56061;51.748;19.620;2023-08-21T00:50:44;99408.60;;;20.80
69007;BMP180;56061;51.748;19.620;2023-08-21T00:53:11;99406.40;;;20.80
69007;BMP180;56061;51.748;19.620;2023-08-21T00:55:38;99402.60;;;20.80
69007;BMP180;56061;51.748;19.620;2023-08-21T00:58:05;99404.80;;;20.84
69007;BMP180;56061;51.748;19.620;2023-08-21T01:00:34;99407.40;;;20.90
69007;BMP180;56061;51.748;19.620;2023-08-21T01:03:01;99408.60;;;20.90
69007;BMP180;56061;51.748;19.620;2023-08-21T01:05:28;99407.00;;;20.90
69007;BMP180;56061;51.748;19.620;2023-08-21T01:08:05;99407.20;;;20.90
69007;BMP180;56061;51.748;19.620;2023-08-21T01:10:45;99408.60;;;20.90
69007;BMP180;56061;51.748;19.620;2023-08-21T01:15:46;99405.00;;;20.96
69007;BMP180;56061;51.748;19.620;2023-08-21T01:18:15;99402.20;;;20.90
69007;BMP180;56061;51.748;19.620;2023-08-21T01:20:42;99401.00;;;20.90
69007;BMP180;56061;51.748;19.620;2023-08-21T01:23:08;99398.60;;;20.80
69007;BMP180;56061;51.748;19.620;2023-08-21T01:25:35;99393.20;;;20.78
69007;BMP180;56061;51.748;19.620;2023-08-21T01:28:01;99389.00;;;20.70
69007;BMP180;56061;51.748;19.620;2023-08-21T01:30:32;99390.60;;;20.70
69007;BMP180;56061;51.748;19.620;2023-08-21T01:33:08;99390.80;;;20.60
69007;BMP180;56061;51.748;19.620;2023-08-21T01:35:37;99394.00;;;20.60
69007;BMP180;56061;51.748;19.620;2023-08-21T01:38:05;99393.60;;;20.50
69007;BMP180;56061;51.748;19.620;2023-08-21T01:40:32;99391.20;;;20.46
69007;BMP180;56061;51.748;19.620;2023-08-21T01:42:58;99389.60;;;20.40
69007;BMP180;56061;51.748;19.620;2023-08-21T01:45:24;99381.80;;;20.32
69007;BMP180;56061;51.748;19.620;2023-08-21T01:47:51;99388.20;;;20.30
69007;BMP180;56061;51.748;19.620;2023-08-21T01:50:18;99393.60;;;20.20
69007;BMP180;56061;51.748;19.620;2023-08-21T01:52:44;99393.20;;;20.12
69007;BMP180;56061;51.748;19.620;2023-08-21T01:55:11;99398.80;;;20.10
69007;BMP180;56061;51.748;19.620;2023-08-21T01:57:38;99389.00;;;20.10
69007;BMP180;56061;51.748;19.620;2023-08-21T02:00:05;99388.00;;;20.10
69007;BMP180;56061;51.748;19.620;2023-08-21T02:02:33;99390.20;;;20.00
69007;BMP180;56061;51.748;19.620;2023-08-21T02:05:00;99390.40;;;20.00
69007;BMP180;56061;51.748;19.620;2023-08-21T02:07:26;99388.40;;;20.00
69007;BMP180;56061;51.748;19.620;2023-08-21T02:09:52;99392.80;;;20.00
69007;BMP180;56061;51.748;19.620;2023-08-21T02:12:19;99397.00;;;19.90
69007;BMP180;56061;51.748;19.620;2023-08-21T02:14:45;99392.60;;;19.90
69007;BMP180;56061;51.748;19.620;2023-08-21T02:17:12;99391.40;;;19.90
69007;BMP180;56061;51.748;19.620;2023-08-21T02:19:38;99389.20;;;19.90
69007;BMP180;56061;51.748;19.620;2023-08-21T02:22:05;99392.20;;;19.90
69007;BMP180;56061;51.748;19.620;2023-08-21T02:24:31;99389.20;;;19.86
69007;BMP180;56061;51.748;19.620;2023-08-21T02:26:57;99388.80;;;19.88
69007;BMP180;56061;51.748;19.620;2023-08-21T02:29:24;99391.00;;;19.80
69007;BMP180;56061;51.748;19.620;2023-08-21T02:31:50;99394.40;;;19.80
69007;BMP180;56061;51.748;19.620;2023-08-21T02:34:17;99396.20;;;19.80
69007;BMP180;56061;51.748;19.620;2023-08-21T02:36:43;99392.20;;;19.80
69007;BMP180;56061;51.748;19.620;2023-08-21T02:39:09;99388.80;;;19.80
69007;BMP180;56061;51.748;19.620;2023-08-21T02:41:36;99389.20;;;19.70
69007;BMP180;56061;51.748;19.620;2023-08-21T02:44:02;99389.00;;;19.70
69007;BMP180;56061;51.748;19.620;2023-08-21T02:46:29;99387.00;;;19.68
69007;BMP180;56061;51.748;19.620;2023-08-21T02:48:55;99385.00;;;19.60
69007;BMP180;56061;51.748;19.620;2023-08-21T02:51:22;99386.80;;;19.60
69007;BMP180;56061;51.748;19.620;2023-08-21T02:53:48;99387.00;;;19.60
69007;BMP180;56061;51.748;19.620;2023-08-21T02:56:15;99381.60;;;19.60
69007;BMP180;56061;51.748;19.620;2023-08-21T02:58:41;99371.40;;;19.60
69007;BMP180;56061;51.748;19.620;2023-08-21T03:01:08;99368.80;;;19.60
69007;BMP180;56061;51.748;19.620;2023-08-21T03:03:34;99364.40;;;19.60
69007;BMP180;56061;51.748;19.620;2023-08-21T03:06:02;99366.00;;;19.60
69007;BMP180;56061;51.748;19.620;2023-08-21T03:08:28;99365.80;;;19.60
69007;BMP180;56061;51.748;19.620;2023-08-21T03:10:55;99361.80;;;19.54
69007;BMP180;56061;51.748;19.620;2023-08-21T03:13:21;99356.20;;;19.50
69007;BMP180;56061;51.748;19.620;2023-08-21T03:15:48;99360.80;;;19.46
69007;BMP180;56061;51.748;19.620;2023-08-21T03:18:15;99364.80;;;19.40
69007;BMP180;56061;51.748;19.620;2023-08-21T03:20:45;99366.40;;;19.38
69007;BMP180;56061;51.748;19.620;2023-08-21T03:23:13;99366.40;;;19.30
69007;BMP180;56061;51.748;19.620;2023-08-21T03:25:39;99376.00;;;19.30
69007;BMP180;56061;51.748;19.620;2023-08-21T03:28:06;99381.00;;;19.30
69007;BMP180;56061;51.748;19.620;2023-08-21T03:30:32;99381.40;;;19.30
69007;BMP180;56061;51.748;19.620;2023-08-21T03:32:59;99390.80;;;19.30
69007;BMP180;56061;51.748;19.620;2023-08-21T03:35:25;99392.00;;;19.30
69007;BMP180;56061;51.748;19.620;2023-08-21T03:37:52;99394.00;;;19.40
69007;BMP180;56061;51.748;19.620;2023-08-21T03:40:18;99398.80;;;19.40
69007;BMP180;56061;51.748;19.620;2023-08-21T03:42:45;99404.40;;;19.40
69007;BMP180;56061;51.748;19.620;2023-08-21T03:45:11;99412.60;;;19.50
69007;BMP180;56061;51.748;19.620;2023-08-21T03:47:38;99412.40;;;19.50
69007;BMP180;56061;51.748;19.620;2023-08-21T03:50:05;99409.80;;;19.52
69007;BMP180;56061;51.748;19.620;2023-08-21T03:52:31;99407.00;;;19.60
69007;BMP180;56061;51.748;19.620;2023-08-21T03:54:58;99411.20;;;19.62
69007;BMP180;56061;51.748;19.620;2023-08-21T03:57:24;99408.60;;;19.70
69007;BMP180;56061;51.748;19.620;2023-08-21T03:59:51;99411.00;;;19.80
69007;BMP180;56061;51.748;19.620;2023-08-21T04:02:17;99408.20;;;19.80
69007;BMP180;56061;51.748;19.620;2023-08-21T04:04:43;99407.00;;;19.90
69007;BMP180;56061;51.748;19.620;2023-08-21T04:07:10;99403.60;;;19.90
69007;BMP180;56061;51.748;19.620;2023-08-21T04:09:36;99404.80;;;19.96
69007;BMP180;56061;51.748;19.620;2023-08-21T04:12:03;99413.40;;;20.00
69007;BMP180;56061;51.748;19.620;2023-08-21T04:14:29;99412.80;;;20.00
69007;BMP180;56061;51.748;19.620;2023-08-21T04:16:56;99413.80;;;20.04
69007;BMP180;56061;51.748;19.620;2023-08-21T04:19:22;99418.60;;;20.10
69007;BMP180;56061;51.748;19.620;2023-08-21T04:21:49;99409.60;;;20.10
69007;BMP180;56061;51.748;19.620;2023-08-21T04:24:15;99409.00;;;20.20
69007;BMP180;56061;51.748;19.620;2023-08-21T04:26:41;99409.00;;;20.30
69007;BMP180;56061;51.748;19.620;2023-08-21T04:29:08;99406.20;;;20.40
69007;BMP180;56061;51.748;19.620;2023-08-21T04:31:34;99402.60;;;20.54
69007;BMP180;56061;51.748;19.620;2023-08-21T04:34:01;99399.00;;;20.70
69007;BMP180;56061;51.748;19.620;2023-08-21T04:36:28;99404.20;;;20.90
69007;BMP180;56061;51.748;19.620;2023-08-21T04:38:54;99407.20;;;21.00
69007;BMP180;56061;51.748;19.620;2023-08-21T04:41:21;99414.40;;;21.20
69007;BMP180;56061;51.748;19.620;2023-08-21T04:43:47;99414.80;;;21.30
69007;BMP180;56061;51.748;19.620;2023-08-21T04:46:14;99413.60;;;21.40
69007;BMP180;56061;51.748;19.620;2023-08-21T04:48:40;99414.00;;;21.50
69007;BMP180;56061;51.748;19.620;2023-08-21T04:51:07;99418.40;;;21.60
69007;BMP180;56061;51.748;19.620;2023-08-21T04:53:33;99408.60;;;21.62
69007;BMP180;56061;51.748;19.620;2023-08-21T04:56:00;99410.80;;;21.70
69007;BMP180;56061;51.748;19.620;2023-08-21T04:58:26;99400.80;;;21.80
69007;BMP180;56061;51.748;19.620;2023-08-21T05:00:53;99400.40;;;21.80
69007;BMP180;56061;51.748;19.620;2023-08-21T05:03:19;99393.40;;;21.90
69007;BMP180;56061;51.748;19.620;2023-08-21T05:05:53;99404.60;;;21.90
69007;BMP180;56061;51.748;19.620;2023-08-21T05:08:25;99424.20;;;21.98
69007;BMP180;56061;51.748;19.620;2023-08-21T05:10:56;99439.60;;;22.00
69007;BMP180;56061;51.748;19.620;2023-08-21T05:13:24;99438.80;;;21.90
69007;BMP180;56061;51.748;19.620;2023-08-21T05:15:56;99435.20;;;21.90
69007;BMP180;56061;51.748;19.620;2023-08-21T05:18:24;99435.40;;;21.90
69007;BMP180;56061;51.748;19.620;2023-08-21T05:20:55;99449.80;;;21.90
69007;BMP180;56061;51.748;19.620;2023-08-21T05:23:22;99462.80;;;21.90
69007;BMP180;56061;51.748;19.620;2023-08-21T05:25:49;99479.80;;;21.80
69007;BMP180;56061;51.748;19.620;2023-08-21T05:28:16;99511.20;;;21.70
69007;BMP180;56061;51.748;19.620;2023-08-21T05:30:42;99548.20;;;21.60
69007;BMP180;56061;51.748;19.620;2023-08-21T05:33:09;99561.80;;;21.32
69007;BMP180;56061;51.748;19.620;2023-08-21T05:35:36;99571.40;;;21.10
69007;BMP180;56061;51.748;19.620;2023-08-21T05:38:03;99564.40;;;20.82
69007;BMP180;56061;51.748;19.620;2023-08-21T05:40:30;99571.80;;;20.60
69007;BMP180;56061;51.748;19.620;2023-08-21T05:42:57;99586.80;;;20.40
69007;BMP180;56061;51.748;19.620;2023-08-21T05:45:24;99592.40;;;20.30
69007;BMP180;56061;51.748;19.620;2023-08-21T05:47:50;99608.20;;;20.16
69007;BMP180;56061;51.748;19.620;2023-08-21T05:50:17;99623.80;;;20.00
69007;BMP180;56061;51.748;19.620;2023-08-21T05:52:43;99627.60;;;19.90
69007;BMP180;56061;51.748;19.620;2023-08-21T05:55:10;99609.60;;;19.80
69007;BMP180;56061;51.748;19.620;2023-08-21T05:57:37;99594.60;;;19.62
69007;BMP180;56061;51.748;19.620;2023-08-21T06:00:04;99616.00;;;19.60
69007;BMP180;56061;51.748;19.620;2023-08-21T06:02:34;99604.00;;;19.50
69007;BMP180;56061;51.748;19.620;2023-08-21T06:05:02;99600.00;;;19.40
69007;BMP180;56061;51.748;19.620;2023-08-21T06:07:29;99605.20;;;19.38
69007;BMP180;56061;51.748;19.620;2023-08-21T06:09:56;99599.80;;;19.28
69007;BMP180;56061;51.748;19.620;2023-08-21T06:12:22;99596.40;;;19.20
69007;BMP180;56061;51.748;19.620;2023-08-21T06:14:49;99592.00;;;19.20
69007;BMP180;56061;51.748;19.620;2023-08-21T06:17:15;99584.60;;;19.20
69007;BMP180;56061;51.748;19.620;2023-08-21T06:19:42;99570.20;;;19.20
69007;BMP180;56061;51.748;19.620;2023-08-21T06:22:08;99557.80;;;19.20
69007;BMP180;56061;51.748;19.620;2023-08-21T06:24:35;99548.40;;;19.20
69007;BMP180;56061;51.748;19.620;2023-08-21T06:27:01;99546.20;;;19.20
69007;BMP180;56061;51.748;19.620;2023-08-21T06:29:31;99544.80;;;19.22
69007;BMP180;56061;51.748;19.620;2023-08-21T06:31:58;99546.00;;;19.30
69007;BMP180;56061;51.748;19.620;2023-08-21T06:34:24;99543.60;;;19.30
69007;BMP180;56061;51.748;19.620;2023-08-21T06:36:50;99545.20;;;19.30
69007;BMP180;56061;51.748;19.620;2023-08-21T06:39:17;99548.40;;;19.30
69007;BMP180;56061;51.748;19.620;2023-08-21T06:41:43;99546.40;;;19.40
69007;BMP180;56061;51.748;19.620;2023-08-21T06:44:10;99545.00;;;19.50
69007;BMP180;56061;51.748;19.620;2023-08-21T06:46:36;99541.20;;;19.60
69007;BMP180;56061;51.748;19.620;2023-08-21T06:49:03;99543.40;;;19.70
69007;BMP180;56061;51.748;19.620;2023-08-21T06:51:29;99539.20;;;19.80
69007;BMP180;56061;51.748;19.620;2023-08-21T06:53:56;99529.20;;;19.84
69007;BMP180;56061;51.748;19.620;2023-08-21T06:56:22;99529.40;;;19.90
69007;BMP180;56061;51.748;19.620;2023-08-21T06:58:49;99531.20;;;20.00
69007;BMP180;56061;51.748;19.620;2023-08-21T07:01:16;99534.00;;;20.00
69007;BMP180;56061;51.748;19.620;2023-08-21T07:03:43;99539.20;;;20.10
69007;BMP180;56061;51.748;19.620;2023-08-21T07:06:09;99539.80;;;20.12
69007;BMP180;56061;51.748;19.620;2023-08-21T07:08:36;99541.60;;;20.20
69007;BMP180;56061;51.748;19.620;2023-08-21T07:11:04;99542.60;;;20.20
69007;BMP180;56061;51.748;19.620;2023-08-21T07:13:30;99540.00;;;20.30
69007;BMP180;56061;51.748;19.620;2023-08-21T07:15:57;99543.40;;;20.40
69007;BMP180;56061;51.748;19.620;2023-08-21T07:18:23;99541.80;;;20.40
69007;BMP180;56061;51.748;19.620;2023-08-21T07:20:53;99540.60;;;20.40
69007;BMP180;56061;51.748;19.620;2023-08-21T07:23:20;99539.20;;;20.44
69007;BMP180;56061;51.748;19.620;2023-08-21T07:25:46;99543.00;;;20.50
69007;BMP180;56061;51.748;19.620;2023-08-21T07:28:13;99543.40;;;20.50
69007;BMP180;56061;51.748;19.620;2023-08-21T07:30:39;99540.80;;;20.60
69007;BMP180;56061;51.748;19.620;2023-08-21T07:33:06;99532.00;;;20.60
69007;BMP180;56061;51.748;19.620;2023-08-21T07:35:32;99536.20;;;20.70
69007;BMP180;56061;51.748;19.620;2023-08-21T07:37:59;99535.80;;;20.80
69007;BMP180;56061;51.748;19.620;2023-08-21T07:40:25;99535.20;;;20.78
69007;BMP180;56061;51.748;19.620;2023-08-21T07:42:52;99540.20;;;20.80
69007;BMP180;56061;51.748;19.620;2023-08-21T07:47:44;99532.00;;;20.70
69007;BMP180;56061;51.748;19.620;2023-08-21T07:50:11;99537.40;;;20.70
69007;BMP180;56061;51.748;19.620;2023-08-21T07:52:37;99538.80;;;20.70
69007;BMP180;56061;51.748;19.620;2023-08-21T07:55:04;99538.00;;;20.80
69007;BMP180;56061;51.748;19.620;2023-08-21T07:57:31;99538.00;;;20.80
69007;BMP180;56061;51.748;19.620;2023-08-21T07:59:57;99535.60;;;20.80
69007;BMP180;56061;51.748;19.620;2023-08-21T08:02:24;99544.20;;;20.80
69007;BMP180;56061;51.748;19.620;2023-08-21T08:04:51;99544.40;;;20.90
69007;BMP180;56061;51.748;19.620;2023-08-21T08:07:18;99535.20;;;20.90
69007;BMP180;56061;51.748;19.620;2023-08-21T08:09:44;99535.80;;;21.00
69007;BMP180;56061;51.748;19.620;2023-08-21T08:12:11;99536.40;;;21.00
69007;BMP180;56061;51.748;19.620;2023-08-21T08:14:38;99537.40;;;21.10
69007;BMP180;56061;51.748;19.620;2023-08-21T08:17:04;99537.80;;;21.20
69007;BMP180;56061;51.748;19.620;2023-08-21T08:19:31;99534.60;;;21.20
69007;BMP180;56061;51.748;19.620;2023-08-21T08:22:05;99528.80;;;21.20
69007;BMP180;56061;51.748;19.620;2023-08-21T08:24:31;99527.00;;;21.30
69007;BMP180;56061;51.748;19.620;2023-08-21T08:26:58;99520.40;;;21.30
69007;BMP180;56061;51.748;19.620;2023-08-21T08:29:24;99517.20;;;21.40
69007;BMP180;56061;51.748;19.620;2023-08-21T08:31:51;99510.40;;;21.40
69007;BMP180;56061;51.748;19.620;2023-08-21T08:34:17;99516.60;;;21.50
69007;BMP180;56061;51.748;19.620;2023-08-21T08:36:44;99526.80;;;21.60
69007;BMP180;56061;51.748;19.620;2023-08-21T08:39:10;99533.00;;;21.66
69007;BMP180;56061;51.748;19.620;2023-08-21T08:41:51;99527.60;;;21.76
69007;BMP180;56061;51.748;19.620;2023-08-21T08:44:46;99527.40;;;21.90
69007;BMP180;56061;51.748;19.620;2023-08-21T08:47:15;99525.40;;;22.04
69007;BMP180;56061;51.748;19.620;2023-08-21T08:49:43;99529.00;;;22.20
69007;BMP180;56061;51.748;19.620;2023-08-21T08:52:11;99527.60;;;22.28
69007;BMP180;56061;51.748;19.620;2023-08-21T08:54:44;99530.20;;;22.30
69007;BMP180;56061;51.748;19.620;2023-08-21T08:57:10;99530.00;;;22.40
69007;BMP180;56061;51.748;19.620;2023-08-21T08:59:37;99527.80;;;22.60
69007;BMP180;56061;51.748;19.620;2023-08-21T09:02:03;99522.40;;;22.70
69007;BMP180;56061;51.748;19.620;2023-08-21T09:04:30;99521.40;;;22.80
69007;BMP180;56061;51.748;19.620;2023-08-21T09:07:10;99522.80;;;22.90
69007;BMP180;56061;51.748;19.620;2023-08-21T09:09:45;99522.00;;;23.00
69007;BMP180;56061;51.748;19.620;2023-08-21T09:12:14;99518.60;;;23.10
69007;BMP180;56061;51.748;19.620;2023-08-21T09:14:41;99520.20;;;23.20
69007;BMP180;56061;51.748;19.620;2023-08-21T09:17:08;99522.60;;;23.30
69007;BMP180;56061;51.748;19.620;2023-08-21T09:19:35;99520.80;;;23.40
69007;BMP180;56061;51.748;19.620;2023-08-21T09:22:15;99525.00;;;23.50
69007;BMP180;56061;51.748;19.620;2023-08-21T09:25:06;99522.00;;;23.60
69007;BMP180;56061;51.748;19.620;2023-08-21T09:27:35;99518.80;;;23.70
69007;BMP180;56061;51.748;19.620;2023-08-21T09:30:09;99520.60;;;23.80
69007;BMP180;56061;51.748;19.620;2023-08-21T09:32:57;99516.60;;;23.80
69007;BMP180;56061;51.748;19.620;2023-08-21T09:35:26;99518.00;;;23.96
69007;BMP180;56061;51.748;19.620;2023-08-21T09:37:53;99508.60;;;24.00
69007;BMP180;56061;51.748;19.620;2023-08-21T09:40:21;99508.80;;;24.00
69007;BMP180;56061;51.748;19.620;2023-08-21T09:42:52;99508.20;;;24.00
69007;BMP180;56061;51.748;19.620;2023-08-21T09:45:27;99514.60;;;24.02
69007;BMP180;56061;51.748;19.620;2023-08-21T09:48:25;99511.20;;;24.10
69007;BMP180;56061;51.748;19.620;2023-08-21T09:50:56;99507.20;;;24.10
69007;BMP180;56061;51.748;19.620;2023-08-21T09:53:23;99503.20;;;24.20
69007;BMP180;56061;51.748;19.620;2023-08-21T09:55:54;99500.80;;;24.30
69007;BMP180;56061;51.748;19.620;2023-08-21T09:58:21;99500.20;;;24.40
69007;BMP180;56061;51.748;19.620;2023-08-21T10:00:49;99493.00;;;24.50
69007;BMP180;56061;51.748;19.620;2023-08-21T10:05:48;99492.20;;;24.60
69007;BMP180;56061;51.748;19.620;2023-08-21T10:10:45;99501.60;;;24.80
69007;BMP180;56061;51.748;19.620;2023-08-21T10:13:12;99495.60;;;24.82
69007;BMP180;56061;51.748;19.620;2023-08-21T10:15:40;99493.20;;;24.90
69007;BMP180;56061;51.748;19.620;2023-08-21T10:20:47;99492.20;;;25.10
69007;BMP180;56061;51.748;19.620;2023-08-21T10:25:46;99495.00;;;25.24
69007;BMP180;56061;51.748;19.620;2023-08-21T10:28:13;99494.60;;;25.32
69007;BMP180;56061;51.748;19.620;2023-08-21T10:30:40;99496.00;;;25.40
69007;BMP180;56061;51.748;19.620;2023-08-21T10:33:06;99499.00;;;25.50
69007;BMP180;56061;51.748;19.620;2023-08-21T10:35:33;99497.80;;;25.50
69007;BMP180;56061;51.748;19.620;2023-08-21T10:38:15;99500.20;;;25.60
69007;BMP180;56061;51.748;19.620;2023-08-21T10:41:08;99503.80;;;25.70
69007;BMP180;56061;51.748;19.620;2023-08-21T10:43:40;99500.20;;;25.80
69007;BMP180;56061;51.748;19.620;2023-08-21T10:46:07;99501.00;;;25.80
69007;BMP180;56061;51.748;19.620;2023-08-21T10:48:36;99496.60;;;25.90
69007;BMP180;56061;51.748;19.620;2023-08-21T10:51:05;99497.80;;;25.90
69007;BMP180;56061;51.748;19.620;2023-08-21T10:53:33;99495.60;;;25.90
69007;BMP180;56061;51.748;19.620;2023-08-21T10:56:05;99493.00;;;26.00
69007;BMP180;56061;51.748;19.620;2023-08-21T10:58:38;99491.40;;;26.10
69007;BMP180;56061;51.748;19.620;2023-08-21T11:01:04;99496.40;;;26.10
69007;BMP180;56061;51.748;19.620;2023-08-21T11:03:31;99495.00;;;26.10
69007;BMP180;56061;51.748;19.620;2023-08-21T11:06:08;99489.40;;;26.10
69007;BMP180;56061;51.748;19.620;2023-08-21T11:08:36;99488.00;;;26.20
69007;BMP180;56061;51.748;19.620;2023-08-21T11:11:07;99488.60;;;26.30
69007;BMP180;56061;51.748;19.620;2023-08-21T11:13:36;99490.40;;;26.30
69007;BMP180;56061;51.748;19.620;2023-08-21T11:16:05;99489.60;;;26.38
69007;BMP180;56061;51.748;19.620;2023-08-21T11:18:37;99490.80;;;26.40
69007;BMP180;56061;51.748;19.620;2023-08-21T11:21:11;99492.60;;;26.46
69007;BMP180;56061;51.748;19.620;2023-08-21T11:23:41;99486.60;;;26.50
69007;BMP180;56061;51.748;19.620;2023-08-21T11:26:12;99488.00;;;26.50
69007;BMP180;56061;51.748;19.620;2023-08-21T11:28:42;99490.80;;;26.60
69007;BMP180;56061;51.748;19.620;2023-08-21T11:31:10;99489.80;;;26.60
69007;BMP180;56061;51.748;19.620;2023-08-21T11:33:37;99487.40;;;26.62
69007;BMP180;56061;51.748;19.620;2023-08-21T11:36:04;99481.20;;;26.70
69007;BMP180;56061;51.748;19.620;2023-08-21T11:38:31;99483.60;;;26.70
69007;BMP180;56061;51.748;19.620;2023-08-21T11:41:00;99481.00;;;26.80
69007;BMP180;56061;51.748;19.620;2023-08-21T11:43:39;99480.20;;;26.80
69007;BMP180;56061;51.748;19.620;2023-08-21T11:46:08;99483.20;;;26.96
69007;BMP180;56061;51.748;19.620;2023-08-21T11:48:38;99473.40;;;27.00
69007;BMP180;56061;51.748;19.620;2023-08-21T11:51:06;99473.80;;;27.10
69007;BMP180;56061;51.748;19.620;2023-08-21T11:53:44;99470.00;;;27.20
69007;BMP180;56061;51.748;19.620;2023-08-21T11:56:15;99478.60;;;27.28
69007;BMP180;56061;51.748;19.620;2023-08-21T11:58:46;99469.20;;;27.32
69007;BMP180;56061;51.748;19.620;2023-08-21T12:03:48;99468.20;;;27.50
69007;BMP180;56061;51.748;19.620;2023-08-21T12:06:23;99468.00;;;27.50
69007;BMP180;56061;51.748;19.620;2023-08-21T12:08:51;99470.20;;;27.60
69007;BMP180;56061;51.748;19.620;2023-08-21T12:11:18;99472.20;;;27.70
69007;BMP180;56061;51.748;19.620;2023-08-21T12:13:44;99473.80;;;27.80
69007;BMP180;56061;51.748;19.620;2023-08-21T12:16:11;99474.40;;;27.90
69007;BMP180;56061;51.748;19.620;2023-08-21T12:18:38;99479.00;;;27.82
69007;BMP180;56061;51.748;19.620;2023-08-21T12:21:04;99468.60;;;27.74
69007;BMP180;56061;51.748;19.620;2023-08-21T12:23:31;99468.20;;;27.80
69007;BMP180;56061;51.748;19.620;2023-08-21T12:25:57;99465.40;;;27.80
69007;BMP180;56061;51.748;19.620;2023-08-21T12:28:23;99461.60;;;27.80
69007;BMP180;56061;51.748;19.620;2023-08-21T12:30:50;99468.20;;;27.90
69007;BMP180;56061;51.748;19.620;2023-08-21T12:33:17;99460.80;;;28.00
69007;BMP180;56061;51.748;19.620;2023-08-21T12:35:45;99460.20;;;28.00
69007;BMP180;56061;51.748;19.620;2023-08-21T12:38:11;99460.40;;;28.08
69007;BMP180;56061;51.748;19.620;2023-08-21T12:40:39;99455.80;;;28.06
69007;BMP180;56061;51.748;19.620;2023-08-21T12:43:06;99453.60;;;28.10
69007;BMP180;56061;51.748;19.620;2023-08-21T12:45:40;99454.60;;;28.20
69007;BMP180;56061;51.748;19.620;2023-08-21T12:48:07;99451.00;;;28.20
69007;BMP180;56061;51.748;19.620;2023-08-21T12:50:34;99437.40;;;28.24
69007;BMP180;56061;51.748;19.620;2023-08-21T12:53:01;99444.40;;;28.40
69007;BMP180;56061;51.748;19.620;2023-08-21T12:55:36;99437.60;;;28.50
69007;BMP180;56061;51.748;19.620;2023-08-21T12:58:03;99441.20;;;28.60
69007;BMP180;56061;51.748;19.620;2023-08-21T13:00:31;99439.20;;;28.80
69007;BMP180;56061;51.748;19.620;2023-08-21T13:02:59;99437.00;;;28.90
69007;BMP180;56061;51.748;19.620;2023-08-21T13:05:26;99443.00;;;28.90
69007;BMP180;56061;51.748;19.620;2023-08-21T13:07:52;99449.00;;;28.80
69007;BMP180;56061;51.748;19.620;2023-08-21T13:10:25;99444.80;;;28.60
69007;BMP180;56061;51.748;19.620;2023-08-21T13:12:51;99446.80;;;28.40
69007;BMP180;56061;51.748;19.620;2023-08-21T13:15:18;99440.20;;;28.20
69007;BMP180;56061;51.748;19.620;2023-08-21T13:17:45;99436.00;;;28.10
69007;BMP180;56061;51.748;19.620;2023-08-21T13:20:11;99439.20;;;28.10
69007;BMP180;56061;51.748;19.620;2023-08-21T13:22:45;99439.40;;;28.10
69007;BMP180;56061;51.748;19.620;2023-08-21T13:25:12;99432.40;;;28.10
69007;BMP180;56061;51.748;19.620;2023-08-21T13:27:39;99429.00;;;28.20
69007;BMP180;56061;51.748;19.620;2023-08-21T13:30:07;99426.40;;;28.30
69007;BMP180;56061;51.748;19.620;2023-08-21T13:32:34;99426.40;;;28.56
69007;BMP180;56061;51.748;19.620;2023-08-21T13:35:01;99432.00;;;28.70
69007;BMP180;56061;51.748;19.620;2023-08-21T13:37:27;99431.20;;;28.80
69007;BMP180;56061;51.748;19.620;2023-08-21T13:39:54;99433.20;;;28.90
69007;BMP180;56061;51.748;19.620;2023-08-21T13:42:21;99429.20;;;29.00
69007;BMP180;56061;51.748;19.620;2023-08-21T13:44:47;99423.40;;;28.92
69007;BMP180;56061;51.748;19.620;2023-08-21T13:47:14;99426.40;;;28.90
69007;BMP180;56061;51.748;19.620;2023-08-21T13:49:41;99434.00;;;29.00
69007;BMP180;56061;51.748;19.620;2023-08-21T13:52:07;99432.00;;;29.00
69007;BMP180;56061;51.748;19.620;2023-08-21T13:54:34;99426.00;;;29.02
69007;BMP180;56061;51.748;19.620;2023-08-21T13:57:00;99430.00;;;29.10
69007;BMP180;56061;51.748;19.620;2023-08-21T13:59:28;99429.20;;;29.10
69007;BMP180;56061;51.748;19.620;2023-08-21T14:01:54;99436.80;;;29.20
69007;BMP180;56061;51.748;19.620;2023-08-21T14:04:21;99437.00;;;29.20
69007;BMP180;56061;51.748;19.620;2023-08-21T14:06:48;99435.40;;;29.22
69007;BMP180;56061;51.748;19.620;2023-08-21T14:09:14;99430.60;;;29.28
69007;BMP180;56061;51.748;19.620;2023-08-21T14:11:41;99429.20;;;29.20
69007;BMP180;56061;51.748;19.620;2023-08-21T14:14:09;99423.00;;;29.22
69007;BMP180;56061;51.748;19.620;2023-08-21T14:16:36;99425.80;;;29.20
69007;BMP180;56061;51.748;19.620;2023-08-21T14:19:11;99428.20;;;29.20